ADDS METAR Data INFO
IDs: Format: Raw Decoded Include TAF

Data at: 1715 UTC 23 Oct 2017

KFGX 231655Z AUTO 15006KT 10SM -DZ OVC080 16/15 A2982 RMK AO2 T01580154
KFGX 231635Z AUTO 15003KT 10SM -RA BKN080 OVC090 16/15 A2983 RMK AO2 T01550151
KFGX 231615Z AUTO 00000KT 10SM -RA OVC070 15/15 A2984 RMK AO2 T01520150
KFGX 231555Z AUTO 15004KT 10SM -RA SCT060 OVC070 15/15 A2985 RMK AO2 T01520147
KFGX 231535Z AUTO 22005KT 5SM RA OVC050 15/15 A2987 RMK AO2 T01500148
KFGX 231515Z AUTO 24009KT 5SM RA SCT009 SCT014 OVC050 15/15 A2988 RMK AO2 T01500147
KFGX 231455Z AUTO 25013G25KT 1 1/4SM RA BKN008 BKN017 OVC049 15/15 A2987 RMK AO2 T01520150
KFGX 231435Z AUTO 14015G23KT 3SM RA SCT047 BKN055 OVC070 17/16 A2983 RMK AO2 T01670162
KFGX 231415Z AUTO 14016G21KT 7SM -RA SCT055 BKN070 OVC085 17/16 A2985 RMK AO2 T01670160
KFGX 231355Z AUTO 14010G17KT 5SM -RA SCT060 BKN070 OVC085 17/16 A2985 RMK AO2 T01700156
KFGX 231335Z AUTO 15014KT 10SM RA BKN060 BKN070 OVC100 18/15 A2987 RMK AO2 T01750153
KFGX 231315Z AUTO 14011KT 10SM -RA OVC100 18/15 A2986 RMK AO2 T01790150
KFGX 231255Z AUTO 14012KT 10SM RA OVC110 18/15 A2987 RMK AO2 T01810145
KFGX 231235Z AUTO 12008KT 10SM DZ SCT055 OVC110 18/14 A2985 RMK AO2 T01810140
KFGX 231215Z AUTO 14009KT 10SM SCT055 BKN120 18/14 A2988 RMK AO2 T01810137
KFGX 231155Z AUTO 13009KT 10SM -DZ BKN110 18/14 A2989 RMK AO2 T01800135 10186 20180
KFGX 231135Z AUTO 12007KT 10SM -RA SCT075 BKN085 OVC110 18/13 A2989 RMK AO2 T01820131
KFGX 231115Z AUTO 13006KT 10SM BKN085 18/13 A2990 RMK AO2 T01820130
KFGX 231055Z AUTO 14006KT 10SM SCT075 BKN085 18/13 A2992 RMK AO2 T01810130
KFGX 231035Z AUTO 13007KT 10SM SCT090 18/13 A2992 RMK AO2 T01820128
KFGX 231015Z AUTO 12006KT 10SM SCT075 SCT100 18/13 A2993 RMK AO2 T01810127
KFGX 230955Z AUTO 13006KT 10SM BKN075 18/13 A2995 RMK AO2 T01820127
KFGX 230935Z AUTO 12005KT 10SM BKN075 18/13 A2995 RMK AO2 T01810125
KFGX 230915Z AUTO 13006KT 10SM CLR 18/13 A2996 RMK AO2 T01810125
KFGX 230855Z AUTO 12006KT 10SM CLR 18/12 A2997 RMK AO2 T01830124
KFGX 230835Z AUTO 14009KT 10SM CLR 18/12 A2998 RMK AO2 T01840123
KFGX 230815Z AUTO 14007KT 10SM CLR 19/12 A2999 RMK AO2 T01850121
KFGX 230755Z AUTO 15010KT 10SM CLR 19/12 A3000 RMK AO2 T01850121
KFGX 230735Z AUTO 14009KT 10SM CLR 18/12 A3000 RMK AO2 T01830119
KFGX 230715Z AUTO 15008KT 10SM CLR 19/12 A3002 RMK AO2 T01850118
KFGX 230655Z AUTO 15008KT 10SM CLR 19/12 A3002 RMK AO2 T01850117
KFGX 230635Z AUTO 15009KT 10SM CLR 19/12 A3002 RMK AO2 T01850117
KFGX 230615Z AUTO 15009KT 10SM CLR 19/12 A3003 RMK AO2 T01860117
KFGX 230555Z AUTO 15009KT 10SM CLR 18/12 A3003 RMK AO2 T01820117 10182 20161 402460113
KFGX 230535Z AUTO 14007KT 10SM CLR 18/12 A3004 RMK AO2 T01800116
KFGX 230515Z AUTO 15007KT 10SM CLR 18/12 A3004 RMK AO2 T01800115
KFGX 230455Z AUTO 15009G14KT 10SM CLR 18/11 A3005 RMK AO2 T01800111
KFGX 230435Z AUTO 14008KT 10SM CLR 17/11 A3005 RMK AO2 T01730108
KFGX 230415Z AUTO 14006KT 10SM CLR 17/11 A3007 RMK AO2 T01710108
KFGX 230355Z AUTO 12007KT 10SM CLR 17/11 A3007 RMK AO2 T01720108
KFGX 230335Z AUTO 12007KT 10SM CLR 17/11 A3007 RMK AO2 T01700108
KFGX 230315Z AUTO 13007KT 10SM CLR 17/11 A3008 RMK AO2 T01700107
KFGX 230255Z AUTO 13006KT 10SM CLR 17/11 A3009 RMK AO2 T01700107
KFGX 230235Z AUTO 12007KT 10SM CLR 17/11 A3009 RMK AO2 T01700107
KFGX 230215Z AUTO 13007KT 10SM CLR 17/11 A3010 RMK AO2 T01700107
KFGX 230155Z AUTO 12006KT 10SM CLR 17/11 A3011 RMK AO2 T01710107
KFGX 230135Z AUTO 12006KT 10SM CLR 17/11 A3012 RMK AO2 T01730106
KFGX 230115Z AUTO 12006KT 10SM CLR 18/11 A3012 RMK AO2 T01750106
KFGX 230055Z AUTO 13007KT 10SM CLR 17/11 A3013 RMK AO2 T01740105
KFGX 230035Z AUTO 00000KT 10SM CLR 17/11 A3014 RMK AO2 T01710106
KFGX 230015Z AUTO 00000KT 10SM CLR 18/11 A3015 RMK AO2 T01750107
KFGX 222355Z AUTO 00000KT 10SM CLR 18/11 A3014 RMK AO2 T01760106 10246 20176
KFGX 222335Z AUTO 00000KT 10SM CLR 18/11 A3014 RMK AO2 T01780106
KFGX 222315Z AUTO 00000KT 10SM CLR 19/11 A3014 RMK AO2 T01850106
KFGX 222255Z AUTO 00000KT 10SM CLR 19/11 A3014 RMK AO2 T01880106
KFGX 222235Z AUTO 00000KT 10SM CLR 20/11 A3015 RMK AO2 T01950106
KFGX 222215Z AUTO 00000KT 10SM CLR 20/11 A3015 RMK AO2 T02010105
KFGX 222155Z AUTO 00000KT 10SM CLR 21/11 A3015 RMK AO2 T02070111
KFGX 222135Z AUTO 16005KT 10SM CLR 21/11 A3015 RMK AO2 T02130105
KFGX 222115Z AUTO 16005KT 10SM CLR 22/10 A3015 RMK AO2 T02170101
KFGX 222055Z AUTO 16005KT 10SM CLR 22/11 A3016 RMK AO2 T02160111
KFGX 222035Z AUTO 17007KT 10SM CLR 22/11 A3016 RMK AO2 T02210105
KFGX 222015Z AUTO 16009KT 10SM CLR 23/10 A3016 RMK AO2 T02330102
KFGX 221955Z AUTO 16011KT 10SM CLR 23/10 A3017 RMK AO2 T02330096
KFGX 221935Z AUTO 16011KT 10SM CLR 23/10 A3017 RMK AO2 T02330095
KFGX 221915Z AUTO 16007KT 10SM CLR 23/10 A3017 RMK AO2 T02300099
KFGX 221855Z AUTO 17008KT 10SM CLR 23/09 A3017 RMK AO2 T02260091
KFGX 221835Z AUTO 15008G15KT 10SM CLR 24/10 A3018 RMK AO2 T02440098
KFGX 221815Z AUTO 17009G14KT 10SM CLR 23/09 A3019 RMK AO2 T02310086
KFGX 221755Z AUTO 16010KT 10SM CLR 23/11 A3020 RMK AO2 T02310105 10233 20130
KFGX 221735Z AUTO 17010KT 10SM CLR 23/10 A3022 RMK AO2 T02250096
KFGX 221715Z AUTO 18008KT 10SM CLR 23/10 A3022 RMK AO2 T02310100
KFGX 221655Z AUTO 19008KT 160V220 10SM CLR 23/10 A3023 RMK AO2 T02320099
KFGX 221635Z AUTO 19008G15KT 10SM CLR 22/10 A3025 RMK AO2 T02210096
KFGX 221615Z AUTO 18011KT 10SM CLR 22/10 A3025 RMK AO2 T02200101
KFGX 221555Z AUTO 20010G16KT 10SM CLR 22/10 A3026 RMK AO2 T02230102
KFGX 221535Z AUTO 17011KT 10SM CLR 22/11 A3025 RMK AO2 T02170107
KFGX 221515Z AUTO 17010KT 10SM CLR 21/10 A3026 RMK AO2 T02070102
KFGX 221455Z AUTO 17009G17KT 10SM CLR 21/10 A3025 RMK AO2 T02050100
KFGX 221435Z AUTO 19009KT 10SM CLR 20/10 A3025 RMK AO2 T02020102
KFGX 221415Z AUTO 17010G14KT 10SM CLR 19/10 A3025 RMK AO2 T01920103
KFGX 221355Z AUTO 17008KT 10SM CLR 18/10 A3026 RMK AO2 T01840104
KFGX 221335Z AUTO 17009G14KT 10SM CLR 17/10 A3026 RMK AO2 T01710101
KFGX 221315Z AUTO 17008KT 10SM CLR 16/10 A3026 RMK AO2 T01620100
KFGX 221255Z AUTO 17008KT 10SM CLR 16/10 A3025 RMK AO2 T01550098
KFGX 221235Z AUTO 16007KT 10SM CLR 15/10 A3025 RMK AO2 T01460097
KFGX 221215Z AUTO 16006KT 10SM CLR 13/10 A3024 RMK AO2 T01330095
KFGX 221155Z AUTO 16006KT 10SM CLR 13/09 A3023 RMK AO2 T01300093 10145 20113
KFGX 221135Z AUTO 16005KT 10SM CLR 11/09 A3023 RMK AO2 T01130087
KFGX 221115Z AUTO 13004KT 10SM CLR 12/09 A3023 RMK AO2 T01160088
KFGX 221055Z AUTO 16005KT 10SM CLR 13/09 A3024 RMK AO2 T01320092
KFGX 221035Z AUTO 15006KT 10SM CLR 12/09 A3023 RMK AO2 T01230090
KFGX 221015Z AUTO 14005KT 10SM CLR 12/09 A3023 RMK AO2 T01220091
KFGX 220955Z AUTO 15005KT 10SM CLR 13/09 A3024 RMK AO2 T01250093
KFGX 220935Z AUTO 16004KT 10SM CLR 12/10 A3024 RMK AO2 T01210096
KFGX 220915Z AUTO 15004KT 10SM CLR 12/10 A3024 RMK AO2 T01240097
KFGX 220855Z AUTO 16004KT 10SM CLR 13/10 A3024 RMK AO2 T01300099
KFGX 220835Z AUTO 17005KT 10SM CLR 13/10 A3024 RMK AO2 T01330103
KFGX 220815Z AUTO 18005KT 10SM CLR 14/10 A3024 RMK AO2 T01420103
KFGX 220755Z AUTO 17005KT 10SM CLR 14/10 A3023 RMK AO2 T01440103
KFGX 220735Z AUTO 18006KT 10SM CLR 14/10 A3023 RMK AO2 T01430103
KFGX 220715Z AUTO 19005KT 10SM CLR 14/10 A3023 RMK AO2 T01420102
KFGX 220655Z AUTO 21003KT 10SM CLR 14/10 A3023 RMK AO2 T01400101
KFGX 220635Z AUTO 19004KT 10SM CLR 14/10 A3023 RMK AO2 T01350101
KFGX 220615Z AUTO 19004KT 10SM CLR 13/10 A3022 RMK AO2 T01330099
KFGX 220555Z AUTO 19003KT 10SM CLR 14/10 A3022 RMK AO2 T01350097 10177 20122 402450081
KFGX 220535Z AUTO 21004KT 10SM CLR 12/10 A3022 RMK AO2 T01220100